createdAt,value
2023-10-24T00:00:22.163Z,100437.88
2023-10-24T00:02:49.639Z,100435.91
2023-10-24T00:05:16.172Z,100426.31
2023-10-24T00:07:42.763Z,100434.28
2023-10-24T00:12:54.187Z,100427.56
2023-10-24T00:15:20.703Z,100427.19
2023-10-24T00:17:47.309Z,100430.34
2023-10-24T00:20:13.878Z,100431.50
2023-10-24T00:22:40.423Z,100426.78
2023-10-24T00:27:51.757Z,100422.41
2023-10-24T00:30:19.190Z,100427.56
2023-10-24T00:32:45.840Z,100421.59
2023-10-24T00:35:12.403Z,100425.16
2023-10-24T00:37:38.972Z,100416.81
2023-10-24T00:42:51.316Z,100415.66
2023-10-24T00:45:17.823Z,100420.00
2023-10-24T00:47:44.358Z,100427.16
2023-10-24T00:50:11.812Z,100428.34
2023-10-24T00:52:39.264Z,100429.94
2023-10-24T00:55:06.740Z,100432.72
2023-10-24T00:57:34.448Z,100433.50
2023-10-24T01:00:00.924Z,100443.03
2023-10-24T01:02:28.597Z,100441.84
2023-10-24T01:04:56.112Z,100434.69
2023-10-24T01:07:22.704Z,100443.44
2023-10-24T01:09:49.256Z,100436.69
2023-10-24T01:12:15.778Z,100436.69
2023-10-24T01:14:43.230Z,100431.50
2023-10-24T01:17:09.765Z,100429.94
2023-10-24T01:19:36.349Z,100432.72
2023-10-24T01:22:03.849Z,100432.31
2023-10-24T01:24:31.204Z,100423.97
2023-10-24T01:26:58.648Z,100425.94
2023-10-24T01:29:25.173Z,100424.38
2023-10-24T01:31:51.762Z,100429.53
2023-10-24T01:34:19.322Z,100427.16
2023-10-24T01:36:45.845Z,100427.94
2023-10-24T01:39:12.385Z,100427.16
2023-10-24T01:41:38.897Z,100427.16
2023-10-24T01:44:05.435Z,100422.41
2023-10-24T01:46:32.949Z,100424.00
2023-10-24T01:49:00.388Z,100423.56
2023-10-24T01:51:27.823Z,100413.25
2023-10-24T01:53:54.334Z,100411.25
2023-10-24T01:56:21.749Z,100407.28
2023-10-24T01:58:49.142Z,100400.91
2023-10-24T02:01:15.721Z,100406.88
2023-10-24T02:03:42.389Z,100401.31
2023-10-24T02:06:09.149Z,100405.31
2023-10-24T02:08:36.630Z,100402.16
2023-10-24T02:11:04.082Z,100415.25
2023-10-24T02:16:15.622Z,100411.72
2023-10-24T02:18:43.140Z,100402.19
2023-10-24T02:21:10.587Z,100403.38
2023-10-24T02:23:38.037Z,100408.16
2023-10-24T02:26:04.558Z,100403.78
2023-10-24T02:31:16.278Z,100411.72
2023-10-24T02:33:43.767Z,100410.94
2023-10-24T02:36:10.300Z,100401.78
2023-10-24T02:38:36.896Z,100406.19
2023-10-24T02:41:03.520Z,100404.19
2023-10-24T02:46:15.835Z,100411.75
2023-10-24T02:48:42.426Z,100404.19
2023-10-24T02:51:09.912Z,100411.72
2023-10-24T02:53:36.452Z,100410.16
2023-10-24T02:56:03.908Z,100415.31
2023-10-24T03:01:15.661Z,100398.22
2023-10-24T03:03:42.296Z,100408.16
2023-10-24T03:06:08.891Z,100402.59
2023-10-24T03:08:35.423Z,100399.81
2023-10-24T03:11:02.864Z,100396.22
2023-10-24T03:16:14.695Z,100387.88
2023-10-24T03:18:42.216Z,100388.66
2023-10-24T03:21:08.824Z,100387.84
2023-10-24T03:23:35.390Z,100387.84
2023-10-24T03:26:01.923Z,100383.88
2023-10-24T03:31:13.655Z,100386.25
2023-10-24T03:33:40.270Z,100384.19
2023-10-24T03:36:06.817Z,100389.34
2023-10-24T03:38:34.295Z,100390.97
2023-10-24T03:41:00.809Z,100379.47
2023-10-24T03:46:12.462Z,100392.94
2023-10-24T03:48:39.076Z,100384.59
2023-10-24T03:51:06.545Z,100382.22
2023-10-24T03:53:33.884Z,100382.63
2023-10-24T03:56:01.349Z,100378.28
2023-10-24T04:01:14.138Z,100367.88
2023-10-24T04:03:40.883Z,100365.88
2023-10-24T04:06:07.444Z,100363.00
2023-10-24T04:08:33.973Z,100356.66
2023-10-24T04:11:00.517Z,100358.13
2023-10-24T04:16:12.316Z,100347.06
2023-10-24T04:18:39.948Z,100348.69
2023-10-24T04:21:06.532Z,100340.69
2023-10-24T04:23:33.083Z,100336.66
2023-10-24T04:26:00.566Z,100328.34
2023-10-24T04:31:11.881Z,100328.84
2023-10-24T04:33:38.492Z,100324.91
2023-10-24T04:36:05.956Z,100323.72
2023-10-24T04:38:33.425Z,100324.50
2023-10-24T04:41:00.938Z,100317.78
2023-10-24T04:46:22.368Z,100332.47
2023-10-24T04:48:48.962Z,100335.69
2023-10-24T04:51:16.433Z,100342.44
2023-10-24T04:53:44.040Z,100337.69
2023-10-24T04:56:11.569Z,100342.47
2023-10-24T05:01:23.026Z,100343.31
2023-10-24T05:03:50.579Z,100350.06
2023-10-24T05:06:18.094Z,100348.56
2023-10-24T05:08:45.583Z,100356.16
2023-10-24T05:11:13.054Z,100354.91
2023-10-24T05:13:40.613Z,100351.41
2023-10-24T05:16:07.601Z,100359.72
2023-10-24T05:18:34.407Z,100366.47
2023-10-24T05:21:01.185Z,100366.47
2023-10-24T05:23:27.956Z,100371.25
2023-10-24T05:25:55.770Z,100375.22
2023-10-24T05:28:23.636Z,100380.38
2023-10-24T05:30:51.183Z,100372.03
2023-10-24T05:33:17.914Z,100385.91
2023-10-24T05:35:45.401Z,100384.63
2023-10-24T05:38:12.887Z,100384.19
2023-10-24T05:40:39.496Z,100391.31
2023-10-24T05:43:06.058Z,100399.63
2023-10-24T05:45:33.598Z,100395.69
2023-10-24T05:48:01.125Z,100396.06
2023-10-24T05:50:27.784Z,100392.97
2023-10-24T05:52:54.375Z,100412.06
2023-10-24T05:55:21.929Z,100406.09
2023-10-24T05:57:49.413Z,100409.69
2023-10-24T06:00:16.877Z,100419.28
2023-10-24T06:02:44.392Z,100413.28
2023-10-24T06:05:10.981Z,100407.31
2023-10-24T06:07:37.605Z,100399.78
2023-10-24T06:10:05.418Z,100397.38
2023-10-24T06:12:32.942Z,100395.41
2023-10-24T06:15:00.417Z,100400.16
2023-10-24T06:17:26.970Z,100400.56
2023-10-24T06:19:54.525Z,100389.81
2023-10-24T06:22:21.106Z,100393.00
2023-10-24T06:24:47.717Z,100387.44
2023-10-24T06:27:15.292Z,100383.50
2023-10-24T06:29:42.132Z,100377.53
2023-10-24T06:34:53.999Z,100379.09
2023-10-24T06:37:20.724Z,100368.41
2023-10-24T06:39:48.269Z,100372.78
2023-10-24T06:42:15.750Z,100365.63
2023-10-24T06:44:43.216Z,100361.31
2023-10-24T06:49:54.123Z,100372.78
2023-10-24T06:52:20.745Z,100371.16
2023-10-24T06:54:48.369Z,100360.44
2023-10-24T06:57:15.838Z,100360.44
2023-10-24T06:59:42.528Z,100362.41
2023-10-24T07:04:53.159Z,100364.78
2023-10-24T07:07:20.676Z,100363.94
2023-10-24T07:09:48.157Z,100367.19
2023-10-24T07:12:15.624Z,100379.44
2023-10-24T07:14:42.326Z,100382.19
2023-10-24T07:19:53.912Z,100378.97
2023-10-24T07:22:21.461Z,100377.00
2023-10-24T07:24:48.993Z,100380.16
2023-10-24T07:27:16.464Z,100380.16
2023-10-24T07:29:43.961Z,100380.53
2023-10-24T07:34:56.532Z,100374.16
2023-10-24T07:37:24.083Z,100376.56
2023-10-24T07:39:50.677Z,100372.97
2023-10-24T07:42:18.177Z,100376.94
2023-10-24T07:44:45.703Z,100376.91
2023-10-24T07:49:58.360Z,100374.94
2023-10-24T07:52:24.990Z,100377.31
2023-10-24T07:54:51.563Z,100378.44
2023-10-24T07:57:19.019Z,100376.03
2023-10-24T07:59:45.563Z,100381.16
2023-10-24T08:04:56.901Z,100350.97
2023-10-24T08:07:23.473Z,100334.28
2023-10-24T08:09:50.976Z,100324.72
2023-10-24T08:12:18.449Z,100324.66
2023-10-24T08:14:45.954Z,100327.84
2023-10-24T08:19:57.436Z,100333.06
2023-10-24T08:22:24.319Z,100321.16
2023-10-24T08:24:51.834Z,100315.53
2023-10-24T08:27:19.314Z,100300.44
2023-10-24T08:29:45.879Z,100286.13
2023-10-24T08:35:07.447Z,100287.59
2023-10-24T08:37:34.012Z,100290.88
2023-10-24T08:40:00.788Z,100285.31
2023-10-24T08:42:27.458Z,100282.19
2023-10-24T08:44:54.054Z,100288.13
2023-10-24T08:50:07.383Z,100283.81
2023-10-24T08:52:34.936Z,100281.91
2023-10-24T08:55:01.662Z,100284.63
2023-10-24T08:57:29.210Z,100296.00
2023-10-24T08:59:55.747Z,100306.94
2023-10-24T09:05:08.256Z,100313.44
2023-10-24T09:07:34.805Z,100307.97
2023-10-24T09:10:01.379Z,100319.06
2023-10-24T09:12:28.847Z,100322.16
2023-10-24T09:14:55.473Z,100314.25
2023-10-24T09:20:07.330Z,100308.84
2023-10-24T09:22:34.864Z,100305.25
2023-10-24T09:25:01.469Z,100310.47
2023-10-24T09:27:28.093Z,100294.88
2023-10-24T09:29:55.577Z,100283.34
2023-10-24T09:32:22.974Z,100281.03
2023-10-24T09:34:49.998Z,100273.06
2023-10-24T09:37:18.077Z,100265.13
2023-10-24T09:39:44.919Z,100261.81
2023-10-24T09:42:11.509Z,100269.00
2023-10-24T09:44:39.145Z,100265.06
2023-10-24T09:47:07.630Z,100258.59
2023-10-24T09:49:34.278Z,100254.38
2023-10-24T09:52:00.897Z,100253.81
2023-10-24T09:54:27.429Z,100241.31
2023-10-24T09:56:53.985Z,100225.94
2023-10-24T09:59:20.549Z,100226.88
2023-10-24T10:02:01.498Z,100214.69
2023-10-24T10:04:34.224Z,100207.97
2023-10-24T10:07:04.037Z,100187.69
2023-10-24T10:09:32.779Z,100184.66
2023-10-24T10:12:00.273Z,100180.66
2023-10-24T10:14:27.759Z,100170.28
2023-10-24T10:16:54.407Z,100170.53
2023-10-24T10:19:20.969Z,100160.34
2023-10-24T10:21:48.477Z,100161.00
2023-10-24T10:24:15.951Z,100154.81
2023-10-24T10:26:42.470Z,100157.34
2023-10-24T10:29:09.080Z,100162.78
2023-10-24T10:32:37.376Z,100170.66
2023-10-24T10:34:22.285Z,100173.56
2023-10-24T10:36:48.907Z,100164.31
2023-10-24T10:39:15.451Z,100159.31
2023-10-24T10:41:42.889Z,100158.09
2023-10-24T10:44:09.455Z,100152.16
2023-10-24T10:46:36.004Z,100149.31
2023-10-24T10:49:02.647Z,100141.00
2023-10-24T10:51:30.059Z,100129.81
2023-10-24T10:53:57.558Z,100131.41
2023-10-24T10:56:24.317Z,100128.91
2023-10-24T10:58:51.710Z,100134.88
2023-10-24T11:01:19.146Z,100138.78
2023-10-24T11:03:45.904Z,100124.28
2023-10-24T11:09:07.543Z,100119.97
2023-10-24T11:11:34.939Z,100128.94
2023-10-24T11:14:01.544Z,100118.56
2023-10-24T11:16:38.162Z,100125.81
2023-10-24T11:19:05.456Z,100118.19
2023-10-24T11:21:32.817Z,100121.72
2023-10-24T11:24:01.240Z,100128.47
2023-10-24T11:26:30.460Z,100117.72
2023-10-24T11:28:58.863Z,100120.91
2023-10-24T11:31:29.039Z,100112.59
2023-10-24T11:33:55.711Z,100109.38
2023-10-24T11:39:07.928Z,100099.03
2023-10-24T11:41:36.300Z,100103.34
2023-10-24T11:44:02.945Z,100110.06
2023-10-24T11:46:29.486Z,100107.78
2023-10-24T11:48:55.937Z,100113.38
2023-10-24T11:54:06.321Z,100119.00
2023-10-24T11:56:32.938Z,100113.88
2023-10-24T11:58:59.551Z,100103.47
2023-10-24T12:01:28.986Z,100090.66
2023-10-24T12:03:58.312Z,100077.88
2023-10-24T12:09:11.051Z,100065.88
2023-10-24T12:11:37.561Z,100067.09
2023-10-24T12:14:04.211Z,100052.84
2023-10-24T12:16:39.796Z,100049.75
2023-10-24T12:19:14.284Z,100040.25
2023-10-24T12:24:24.904Z,100028.03
2023-10-24T12:26:51.444Z,100038.78
2023-10-24T12:29:17.939Z,100041.28
2023-10-24T12:31:46.399Z,100045.59
2023-10-24T12:34:14.852Z,100051.94
2023-10-24T12:39:28.329Z,100055.94
2023-10-24T12:41:54.843Z,100058.31
2023-10-24T12:44:23.310Z,100047.97
2023-10-24T12:46:49.875Z,100057.53
2023-10-24T12:49:18.307Z,100041.66
2023-10-24T12:54:32.773Z,100030.13
2023-10-24T12:56:59.360Z,100015.44
2023-10-24T12:59:25.919Z,100015.03
2023-10-24T13:01:54.339Z,100002.72
2023-10-24T13:04:21.747Z,99999.56
2023-10-24T13:09:35.354Z,99993.72
2023-10-24T13:12:01.918Z,99990.13
2023-10-24T13:14:28.479Z,99993.31
2023-10-24T13:17:01.957Z,99988.50
2023-10-24T13:19:35.605Z,99990.06
2023-10-24T13:24:56.284Z,99990.00
2023-10-24T13:27:22.853Z,99985.75
2023-10-24T13:29:51.207Z,99997.97
2023-10-24T13:32:18.765Z,99999.16
2023-10-24T13:40:00.523Z,99985.38
2023-10-24T13:42:27.982Z,99968.69
2023-10-24T13:44:55.373Z,99972.19
2023-10-24T13:47:22.773Z,99960.63
2023-10-24T13:49:49.350Z,99966.59
2023-10-24T13:55:09.983Z,99937.22
2023-10-24T13:57:36.587Z,99930.88
2023-10-24T14:00:06.614Z,99936.84
2023-10-24T14:02:34.175Z,99934.84
2023-10-24T14:05:00.864Z,99923.72
2023-10-24T14:10:12.578Z,99930.41
2023-10-24T14:12:39.046Z,99925.31
2023-10-24T14:15:07.546Z,99930.50
2023-10-24T14:17:34.998Z,99929.00
2023-10-24T14:20:01.582Z,99937.75
2023-10-24T14:25:11.905Z,99922.16
2023-10-24T14:27:38.423Z,99923.03
2023-10-24T14:30:04.965Z,99918.19
2023-10-24T14:32:32.479Z,99914.69
2023-10-24T14:34:59.999Z,99913.50
2023-10-24T14:40:11.542Z,99903.25
2023-10-24T14:42:38.939Z,99893.69
2023-10-24T14:45:05.438Z,99901.72
2023-10-24T14:47:33.585Z,99888.19
2023-10-24T14:50:02.094Z,99898.59
2023-10-24T14:55:23.470Z,99895.09
2023-10-24T14:57:50.032Z,99896.31
2023-10-24T15:00:17.370Z,99892.34
2023-10-24T15:02:43.935Z,99888.78
2023-10-24T15:05:10.495Z,99888.00
2023-10-24T15:10:21.207Z,99883.72
2023-10-24T15:12:47.774Z,99885.25
2023-10-24T15:15:14.323Z,99880.50
2023-10-24T15:17:40.991Z,99881.66
2023-10-24T15:20:08.412Z,99882.06
2023-10-24T15:25:29.796Z,99875.72
2023-10-24T15:27:57.151Z,99881.69
2023-10-24T15:30:23.698Z,99881.31
2023-10-24T15:32:50.369Z,99874.56
2023-10-24T15:35:16.947Z,99878.94
2023-10-24T15:37:43.501Z,99881.31
2023-10-24T15:40:10.379Z,99879.03
2023-10-24T15:42:37.852Z,99873.09
2023-10-24T15:45:05.346Z,99878.16
2023-10-24T15:47:31.919Z,99873.06
2023-10-24T15:50:00.350Z,99868.34
2023-10-24T15:52:26.902Z,99865.19
2023-10-24T15:54:54.445Z,99864.81
2023-10-24T15:57:22.095Z,99865.19
2023-10-24T15:59:48.651Z,99870.31
2023-10-24T16:02:15.368Z,99867.63
2023-10-24T16:04:42.179Z,99864.06
2023-10-24T16:07:08.895Z,99861.25
2023-10-24T16:09:35.456Z,99860.47
2023-10-24T16:12:02.005Z,99858.50
2023-10-24T16:14:29.453Z,99851.00
2023-10-24T16:16:56.020Z,99852.47
2023-10-24T16:19:22.770Z,99850.94
2023-10-24T16:21:49.332Z,99844.97
2023-10-24T16:24:15.876Z,99839.81
2023-10-24T16:26:42.472Z,99838.97
2023-10-24T16:29:09.082Z,99837.81
2023-10-24T16:31:36.683Z,99834.34
2023-10-24T16:34:03.285Z,99838.31
2023-10-24T16:36:29.877Z,99825.69
2023-10-24T16:38:56.418Z,99813.75
2023-10-24T16:41:22.949Z,99810.88
2023-10-24T16:43:49.559Z,99810.66
2023-10-24T16:46:16.163Z,99800.34
2023-10-24T16:48:42.732Z,99804.31
2023-10-24T16:51:12.090Z,99792.81
2023-10-24T16:53:38.932Z,99786.50
2023-10-24T16:58:59.535Z,99782.53
2023-10-24T17:01:26.113Z,99784.97
2023-10-24T17:03:53.657Z,99779.03
2023-10-24T17:06:21.250Z,99767.50
2023-10-24T17:08:47.834Z,99758.38
2023-10-24T17:13:58.349Z,99749.22
2023-10-24T17:16:24.961Z,99751.19
2023-10-24T17:18:51.539Z,99752.78
2023-10-24T17:21:19.094Z,99756.66
2023-10-24T17:23:45.660Z,99760.66
2023-10-24T17:28:57.112Z,99742.97
2023-10-24T17:31:24.668Z,99750.09
2023-10-24T17:33:52.150Z,99749.69
2023-10-24T17:36:19.682Z,99749.75
2023-10-24T17:38:47.157Z,99746.69
2023-10-24T17:44:27.399Z,99738.63
2023-10-24T17:46:55.152Z,99741.81
2023-10-24T17:49:22.682Z,99737.47
2023-10-24T17:51:50.154Z,99729.94
2023-10-24T17:54:16.703Z,99728.81
2023-10-24T17:59:29.092Z,99713.88
2023-10-24T18:01:56.710Z,99714.00
2023-10-24T18:04:23.607Z,99709.91
2023-10-24T18:06:50.250Z,99711.91
2023-10-24T18:09:17.778Z,99715.16
2023-10-24T18:14:29.211Z,99698.41
2023-10-24T18:16:55.791Z,99698.28
2023-10-24T18:19:22.372Z,99695.97
2023-10-24T18:21:48.918Z,99698.69
2023-10-24T18:24:15.495Z,99699.19
2023-10-24T18:29:25.995Z,99689.81
2023-10-24T18:31:52.621Z,99693.41
2023-10-24T18:34:19.219Z,99683.78
2023-10-24T18:36:45.795Z,99676.53
2023-10-24T18:39:12.394Z,99677.75
2023-10-24T18:44:24.564Z,99663.63
2023-10-24T18:46:52.124Z,99654.06
2023-10-24T18:49:18.805Z,99646.63
2023-10-24T18:51:45.515Z,99635.84
2023-10-24T18:54:13.049Z,99641.44
2023-10-24T18:59:25.630Z,99652.91
2023-10-24T19:01:52.243Z,99650.97
2023-10-24T19:04:19.843Z,99657.25
2023-10-24T19:06:48.224Z,99656.47
2023-10-24T19:09:14.840Z,99663.28
2023-10-24T19:14:30.207Z,99657.78
2023-10-24T19:16:57.037Z,99650.84
2023-10-24T19:19:23.613Z,99646.84
2023-10-24T19:21:50.331Z,99646.34
2023-10-24T19:24:17.861Z,99638.56
2023-10-24T19:29:28.484Z,99644.13
2023-10-24T19:31:55.040Z,99637.22
2023-10-24T19:34:22.524Z,99625.72
2023-10-24T19:36:49.140Z,99629.53
2023-10-24T19:39:16.671Z,99627.75
2023-10-24T19:44:27.385Z,99620.53
2023-10-24T19:46:54.874Z,99628.53
2023-10-24T19:49:22.555Z,99632.84
2023-10-24T19:51:49.244Z,99614.47
2023-10-24T19:54:16.797Z,99616.41
2023-10-24T19:59:27.545Z,99595.94
2023-10-24T20:01:55.089Z,99607.00
2023-10-24T20:04:21.767Z,99597.97
2023-10-24T20:06:49.362Z,99593.88
2023-10-24T20:09:16.642Z,99582.03
2023-10-24T20:12:36.804Z,99584.34
2023-10-24T20:14:30.689Z,99575.31
2023-10-24T20:16:58.281Z,99558.50
2023-10-24T20:19:24.915Z,99557.28
2023-10-24T20:21:52.477Z,99541.78
2023-10-24T20:24:19.993Z,99543.94
2023-10-24T20:26:46.551Z,99540.97
2023-10-24T20:29:14.042Z,99540.19
2023-10-24T20:31:40.719Z,99542.75
2023-10-24T20:34:08.418Z,99536.56
2023-10-24T20:36:44.037Z,99532.69
2023-10-24T20:39:22.214Z,99533.66
2023-10-24T20:41:49.707Z,99528.94
2023-10-24T20:44:17.170Z,99512.28
2023-10-24T20:46:44.662Z,99508.16
2023-10-24T20:49:12.239Z,99501.28
2023-10-24T20:51:39.892Z,99504.34
2023-10-24T20:54:06.485Z,99501.44
2023-10-24T20:56:33.083Z,99514.75
2023-10-24T20:58:59.619Z,99506.06
2023-10-24T21:01:27.285Z,99502.13
2023-10-24T21:03:54.864Z,99496.34
2023-10-24T21:06:22.370Z,99494.06
2023-10-24T21:08:48.953Z,99499.06
2023-10-24T21:11:15.486Z,99489.47
2023-10-24T21:13:42.163Z,99481.38
2023-10-24T21:16:11.889Z,99470.56
2023-10-24T21:18:40.050Z,99466.56
2023-10-24T21:21:06.733Z,99465.00
2023-10-24T21:23:33.265Z,99457.03
2023-10-24T21:26:00.734Z,99440.69
2023-10-24T21:28:28.200Z,99435.13
2023-10-24T21:30:55.731Z,99433.13
2023-10-24T21:33:22.346Z,99424.50
2023-10-24T21:35:49.816Z,99421.16
2023-10-24T21:38:17.290Z,99421.75
2023-10-24T21:40:43.845Z,99417.69
2023-10-24T21:43:10.423Z,99412.19
2023-10-24T21:48:22.047Z,99424.50
2023-10-24T21:50:48.571Z,99422.59
2023-10-24T21:53:15.190Z,99412.56
2023-10-24T21:55:42.652Z,99414.16
2023-10-24T21:58:09.275Z,99415.19
2023-10-24T22:03:20.907Z,99393.38
2023-10-24T22:05:47.480Z,99404.22
2023-10-24T22:08:14.030Z,99396.22
2023-10-24T22:10:41.481Z,99391.50
2023-10-24T22:13:08.035Z,99389.16
2023-10-24T22:18:19.741Z,99387.97
2023-10-24T22:20:47.213Z,99378.03
2023-10-24T22:23:13.761Z,99373.63
2023-10-24T22:25:41.176Z,99378.84
2023-10-24T22:28:07.715Z,99370.19
2023-10-24T22:33:19.129Z,99374.63
2023-10-24T22:35:46.581Z,99368.31
2023-10-24T22:38:13.189Z,99365.06
2023-10-24T22:40:39.711Z,99362.59
2023-10-24T22:43:07.193Z,99353.09
2023-10-24T22:48:18.433Z,99334.38
2023-10-24T22:50:44.956Z,99335.16
2023-10-24T22:53:11.468Z,99328.88
2023-10-24T22:55:38.892Z,99312.56
2023-10-24T22:58:05.458Z,99322.19
2023-10-24T23:03:17.109Z,99312.16
2023-10-24T23:05:43.672Z,99307.44
2023-10-24T23:08:12.038Z,99301.06
2023-10-24T23:10:38.649Z,99294.31
2023-10-24T23:13:06.167Z,99293.53
2023-10-24T23:18:18.523Z,99294.59
2023-10-24T23:20:45.964Z,99286.75
2023-10-24T23:23:12.482Z,99284.78
2023-10-24T23:25:39.895Z,99279.22
2023-10-24T23:28:07.410Z,99280.06
2023-10-24T23:33:19.366Z,99256.91
2023-10-24T23:35:45.861Z,99256.03
2023-10-24T23:38:12.341Z,99241.78
2023-10-24T23:40:39.699Z,99236.31
2023-10-24T23:43:06.282Z,99249.84
2023-10-24T23:48:17.866Z,99244.63
2023-10-24T23:50:45.280Z,99244.72
2023-10-24T23:53:13.630Z,99238.81
2023-10-24T23:55:40.131Z,99243.00
2023-10-24T23:58:06.683Z,99237.16
